Time;durP1;ratioP1;P1;durP2;ratioP2;P2;SDS_P1;SDS_P2;PMS_P1;PMS_P2;Temp;Humidity;BMP_temperature;BMP_pressure;BME280_temperature;BME280_humidity;BME280_pressure;Samples;Min_cycle;Max_cycle;Signal;HPM_P1;HPM_P2
2022/03/04 00:00:17;;;;;;;;;;;3.70;98.00;;;;;;5068374;28;19924;-75
2022/03/04 00:02:44;;;;;;;;;;;3.70;98.00;;;;;;5068395;28;19924;-74
2022/03/04 00:05:11;;;;;;;;;;;3.70;98.20;;;;;;5068834;28;19964;-75
2022/03/04 00:07:38;;;;;;;;;;;3.60;98.40;;;;;;5068575;28;19931;-74
2022/03/04 00:10:07;;;;;;;;;;;3.70;98.30;;;;;;5068177;28;20408;-74
2022/03/04 00:12:34;;;;;;;;;;;3.60;98.60;;;;;;5068380;28;20346;-74
2022/03/04 00:15:00;;;;;;;;;;;3.60;98.50;;;;;;5068185;28;19925;-75
2022/03/04 00:17:27;;;;;;;;;;;3.60;98.80;;;;;;5068161;28;19925;-75
2022/03/04 00:19:54;;;;;;;;;;;3.60;98.70;;;;;;5068045;28;19928;-75
2022/03/04 00:22:21;;;;;;;;;;;3.50;98.80;;;;;;5068461;28;19932;-75
2022/03/04 00:24:48;;;;;;;;;;;3.50;99.30;;;;;;5068199;28;20353;-75
2022/03/04 00:27:16;;;;;;;;;;;3.50;99.40;;;;;;5068039;28;20349;-74
2022/03/04 00:29:43;;;;;;;;;;;3.40;99.40;;;;;;5068003;28;19929;-75
2022/03/04 00:32:10;;;;;;;;;;;3.50;99.50;;;;;;5067951;28;19925;-75
2022/03/04 00:34:38;;;;;;;;;;;3.50;99.80;;;;;;5051683;28;19924;-74
2022/03/04 00:37:05;;;;;;;;;;;3.50;99.60;;;;;;5068082;28;20019;-75
2022/03/04 00:39:32;;;;;;;;;;;3.50;99.80;;;;;;5067527;28;19925;-75
2022/03/04 00:41:59;;;;;;;;;;;3.40;99.90;;;;;;5068003;28;19932;-75
2022/03/04 00:44:27;;;;;;;;;;;3.40;99.90;;;;;;5067549;28;20375;-75
2022/03/04 00:46:54;;;;;;;;;;;3.40;99.90;;;;;;5067831;28;19978;-74
2022/03/04 00:49:21;;;;;;;;;;;3.30;99.90;;;;;;5065342;28;19931;-73
2022/03/04 00:51:48;;;;;;;;;;;3.30;99.90;;;;;;5066677;28;20371;-73
2022/03/04 00:54:14;;;;;;;;;;;3.30;99.90;;;;;;5049863;28;19928;-72
2022/03/04 00:56:42;;;;;;;;;;;3.30;99.90;;;;;;5049688;28;20342;-73
2022/03/04 00:59:08;;;;;;;;;;;3.30;99.90;;;;;;5049326;28;19925;-71
2022/03/04 01:01:37;;;;;;;;;;;3.20;99.90;;;;;;5049681;28;20289;-73
2022/03/04 01:04:04;;;;;;;;;;;3.20;99.90;;;;;;5049416;28;19986;-72
2022/03/04 01:06:30;;;;;;;;;;;3.20;99.90;;;;;;5049539;28;20343;-72
2022/03/04 01:08:57;;;;;;;;;;;3.10;99.90;;;;;;5049585;28;19933;-73
2022/03/04 01:11:24;;;;;;;;;;;3.20;99.90;;;;;;5049746;28;19928;-73
2022/03/04 01:13:51;;;;;;;;;;;3.10;99.90;;;;;;5049790;28;20400;-73
2022/03/04 01:16:17;;;;;;;;;;;3.10;99.90;;;;;;5049520;28;19929;-73
2022/03/04 01:18:46;;;;;;;;;;;3.20;99.90;;;;;;5049519;28;19972;-72
2022/03/04 01:21:12;;;;;;;;;;;3.20;99.90;;;;;;5049359;28;20027;-74
2022/03/04 01:23:39;;;;;;;;;;;3.20;99.90;;;;;;5049784;28;20366;-72
2022/03/04 01:26:06;;;;;;;;;;;3.20;99.90;;;;;;5049765;28;19925;-72
2022/03/04 01:28:33;;;;;;;;;;;3.20;99.90;;;;;;5049638;28;19925;-74
2022/03/04 01:31:00;;;;;;;;;;;3.20;99.90;;;;;;5049574;28;19925;-73
2022/03/04 01:33:27;;;;;;;;;;;3.10;99.90;;;;;;5049452;28;19929;-73
2022/03/04 01:35:55;;;;;;;;;;;3.10;99.90;;;;;;5049581;28;19925;-73
2022/03/04 01:38:22;;;;;;;;;;;3.00;99.90;;;;;;5049878;28;19932;-73
2022/03/04 01:40:49;;;;;;;;;;;3.00;99.90;;;;;;5049079;28;20109;-73
2022/03/04 01:43:16;;;;;;;;;;;3.00;99.90;;;;;;5049815;28;19982;-74
2022/03/04 01:45:43;;;;;;;;;;;3.10;99.90;;;;;;5049547;28;19928;-72
2022/03/04 01:48:10;;;;;;;;;;;3.10;99.90;;;;;;5049436;28;20015;-73
2022/03/04 01:50:37;;;;;;;;;;;3.10;99.90;;;;;;5048830;28;19932;-73
2022/03/04 01:53:05;;;;;;;;;;;3.10;99.90;;;;;;5065961;28;19971;-73
2022/03/04 01:55:31;;;;;;;;;;;3.10;99.90;;;;;;5068029;28;20462;-73
2022/03/04 01:57:58;;;;;;;;;;;3.10;99.90;;;;;;5070032;28;19936;-73
2022/03/04 02:00:26;;;;;;;;;;;3.10;99.90;;;;;;5069148;28;19929;-74
2022/03/04 02:02:57;;;;;;;;;;;3.00;99.90;;;;;;5069499;28;19960;-73
2022/03/04 02:05:24;;;;;;;;;;;3.00;99.90;;;;;;5069655;28;20391;-73
2022/03/04 02:07:50;;;;;;;;;;;2.90;99.90;;;;;;5069558;28;19974;-73
2022/03/04 02:10:19;;;;;;;;;;;3.00;99.90;;;;;;5069144;28;19925;-73
2022/03/04 02:12:45;;;;;;;;;;;3.00;99.90;;;;;;5069501;28;19990;-72
2022/03/04 02:15:12;;;;;;;;;;;3.00;99.90;;;;;;5069749;28;19967;-72
2022/03/04 02:17:39;;;;;;;;;;;2.90;99.90;;;;;;5069410;28;20453;-73
2022/03/04 02:20:07;;;;;;;;;;;2.90;99.90;;;;;;5068810;28;19936;-73
2022/03/04 02:22:35;;;;;;;;;;;2.80;99.90;;;;;;5069425;28;20384;-73
2022/03/04 02:25:05;;;;;;;;;;;2.80;99.90;;;;;;5069237;28;19929;-72
2022/03/04 02:27:32;;;;;;;;;;;2.80;99.90;;;;;;5052683;28;19925;-72
2022/03/04 02:29:58;;;;;;;;;;;2.70;99.90;;;;;;5068826;28;19924;-72
2022/03/04 02:32:25;;;;;;;;;;;2.70;99.90;;;;;;5068618;28;19990;-72
2022/03/04 02:34:53;;;;;;;;;;;2.70;99.90;;;;;;5069375;28;20387;-72
2022/03/04 02:37:20;;;;;;;;;;;2.70;99.90;;;;;;5068882;28;20345;-72
2022/03/04 02:39:50;;;;;;;;;;;2.60;99.90;;;;;;5068458;28;19925;-72
2022/03/04 02:42:17;;;;;;;;;;;2.60;99.90;;;;;;5069264;28;19957;-71
2022/03/04 02:44:44;;;;;;;;;;;2.50;99.90;;;;;;5069147;28;19991;-72
2022/03/04 02:47:11;;;;;;;;;;;2.50;99.90;;;;;;5068759;28;20350;-71
2022/03/04 02:49:37;;;;;;;;;;;2.50;99.90;;;;;;5068335;28;19931;-72
2022/03/04 02:52:04;;;;;;;;;;;2.40;99.90;;;;;;5052601;28;19925;-70
2022/03/04 02:54:31;;;;;;;;;;;2.40;99.90;;;;;;5068942;28;19924;-71
2022/03/04 02:57:00;;;;;;;;;;;2.40;99.90;;;;;;5068689;28;19925;-72
2022/03/04 02:59:26;;;;;;;;;;;2.30;99.90;;;;;;5068477;28;19928;-70
2022/03/04 03:01:53;;;;;;;;;;;2.30;99.90;;;;;;5068648;28;19925;-71
2022/03/04 03:04:20;;;;;;;;;;;2.30;99.90;;;;;;5068649;28;19932;-72
2022/03/04 03:06:47;;;;;;;;;;;2.30;99.90;;;;;;5068537;28;20019;-71
2022/03/04 03:09:13;;;;;;;;;;;2.20;99.90;;;;;;5067880;28;20419;-72
2022/03/04 03:11:40;;;;;;;;;;;2.20;99.90;;;;;;5068614;28;19954;-72
2022/03/04 03:14:08;;;;;;;;;;;2.10;99.90;;;;;;5068296;28;19925;-71
2022/03/04 03:16:35;;;;;;;;;;;2.10;99.90;;;;;;5068547;28;19936;-71
2022/03/04 03:19:02;;;;;;;;;;;2.00;99.90;;;;;;5067819;28;19925;-72
2022/03/04 03:21:29;;;;;;;;;;;2.00;99.90;;;;;;5068045;28;19925;-72
2022/03/04 03:23:55;;;;;;;;;;;2.00;99.90;;;;;;5051583;28;20446;-72
2022/03/04 03:26:23;;;;;;;;;;;2.00;99.90;;;;;;5051706;28;19932;-72
2022/03/04 03:28:51;;;;;;;;;;;2.00;99.90;;;;;;5067794;28;20392;-70
2022/03/04 03:31:19;;;;;;;;;;;2.00;99.90;;;;;;5068147;28;19940;-71
2022/03/04 03:33:47;;;;;;;;;;;1.90;99.90;;;;;;5051341;28;20002;-72
2022/03/04 03:36:13;;;;;;;;;;;1.90;99.90;;;;;;5068188;28;19925;-71
2022/03/04 03:38:40;;;;;;;;;;;1.90;99.90;;;;;;5067673;28;19933;-69
2022/03/04 03:41:07;;;;;;;;;;;1.90;99.90;;;;;;5067759;28;19925;-71
2022/03/04 03:43:34;;;;;;;;;;;1.80;99.90;;;;;;5067961;28;19925;-71
2022/03/04 03:46:00;;;;;;;;;;;1.80;99.90;;;;;;5051186;28;19925;-71
2022/03/04 03:48:29;;;;;;;;;;;1.80;99.90;;;;;;5067687;28;19932;-68
2022/03/04 03:50:55;;;;;;;;;;;1.80;99.90;;;;;;5065047;28;19933;-71
2022/03/04 03:53:22;;;;;;;;;;;1.80;99.90;;;;;;5050919;28;19925;-72
2022/03/04 03:55:49;;;;;;;;;;;1.80;99.90;;;;;;5067639;28;19932;-69
2022/03/04 03:58:16;;;;;;;;;;;1.70;99.90;;;;;;5050979;28;19924;-70
2022/03/04 04:00:43;;;;;;;;;;;1.70;99.90;;;;;;5067076;28;19925;-71
2022/03/04 04:03:10;;;;;;;;;;;1.70;99.90;;;;;;5067658;28;19924;-71
2022/03/04 04:05:38;;;;;;;;;;;1.70;99.90;;;;;;5067506;28;19932;-71
2022/03/04 04:08:05;;;;;;;;;;;1.70;99.90;;;;;;5067518;28;19924;-71
2022/03/04 04:10:32;;;;;;;;;;;1.70;99.90;;;;;;5066743;28;20423;-72
2022/03/04 04:12:59;;;;;;;;;;;1.70;99.90;;;;;;5067649;28;20019;-72
2022/03/04 04:15:25;;;;;;;;;;;1.60;99.90;;;;;;5067114;28;20346;-72
2022/03/04 04:17:52;;;;;;;;;;;1.60;99.90;;;;;;5066870;28;20473;-72
2022/03/04 04:20:19;;;;;;;;;;;1.50;99.90;;;;;;5066591;28;19982;-71
2022/03/04 04:22:47;;;;;;;;;;;1.50;99.90;;;;;;5067126;28;19975;-71
2022/03/04 04:25:13;;;;;;;;;;;1.50;99.90;;;;;;5067159;28;19989;-73
2022/03/04 04:27:40;;;;;;;;;;;1.40;99.90;;;;;;5051551;28;19947;-72
2022/03/04 04:30:07;;;;;;;;;;;1.40;99.90;;;;;;5066521;28;19924;-72
2022/03/04 04:32:34;;;;;;;;;;;1.40;99.90;;;;;;5066703;28;19932;-72
2022/03/04 04:35:01;;;;;;;;;;;1.40;99.90;;;;;;5066784;28;19975;-71
2022/03/04 04:37:28;;;;;;;;;;;1.40;99.90;;;;;;5066899;28;19932;-71
2022/03/04 04:39:56;;;;;;;;;;;1.40;99.90;;;;;;5066292;28;19925;-72
2022/03/04 04:42:23;;;;;;;;;;;1.30;99.90;;;;;;5066661;28;19924;-72
2022/03/04 04:44:49;;;;;;;;;;;1.30;99.90;;;;;;5066749;28;20012;-71
2022/03/04 04:47:16;;;;;;;;;;;1.30;99.90;;;;;;5066912;28;20332;-71
2022/03/04 04:49:43;;;;;;;;;;;1.20;99.90;;;;;;5066300;28;19925;-72
2022/03/04 04:52:10;;;;;;;;;;;1.20;99.90;;;;;;5067018;28;19932;-72
2022/03/04 04:54:37;;;;;;;;;;;1.20;99.90;;;;;;5066779;28;19929;-72
2022/03/04 04:57:05;;;;;;;;;;;1.20;99.90;;;;;;5066931;28;19932;-70
2022/03/04 04:59:32;;;;;;;;;;;1.20;99.90;;;;;;5066680;28;19925;-72
2022/03/04 05:01:59;;;;;;;;;;;1.20;99.90;;;;;;5066900;28;19935;-72
2022/03/04 05:04:26;;;;;;;;;;;1.10;99.90;;;;;;5066880;28;19928;-70
2022/03/04 05:06:53;;;;;;;;;;;1.10;99.90;;;;;;5066961;28;19995;-72
2022/03/04 05:09:20;;;;;;;;;;;1.10;99.90;;;;;;5066087;28;20461;-72
2022/03/04 05:11:47;;;;;;;;;;;1.00;99.90;;;;;;5066647;28;20019;-71
2022/03/04 05:14:15;;;;;;;;;;;1.00;99.90;;;;;;5066664;28;19929;-72
2022/03/04 05:16:41;;;;;;;;;;;1.00;99.90;;;;;;5066439;28;19929;-72
2022/03/04 05:19:08;;;;;;;;;;;1.00;99.90;;;;;;5066116;28;20453;-71
2022/03/04 05:21:35;;;;;;;;;;;0.90;99.90;;;;;;5066434;28;19932;-72
2022/03/04 05:24:02;;;;;;;;;;;0.90;99.90;;;;;;5066513;28;20002;-71
2022/03/04 05:26:30;;;;;;;;;;;0.90;99.90;;;;;;5066432;28;20400;-72
2022/03/04 05:28:57;;;;;;;;;;;0.90;99.90;;;;;;5065877;28;19952;-71
2022/03/04 05:31:26;;;;;;;;;;;0.90;99.90;;;;;;5070123;28;19932;-72
2022/03/04 05:33:52;;;;;;;;;;;0.90;99.90;;;;;;5070760;28;20171;-71
2022/03/04 05:36:19;;;;;;;;;;;0.90;99.90;;;;;;5070405;28;19929;-71
2022/03/04 05:38:46;;;;;;;;;;;0.90;99.90;;;;;;5069897;28;19971;-71
2022/03/04 05:41:14;;;;;;;;;;;0.80;99.90;;;;;;5070141;28;19924;-71
2022/03/04 05:43:41;;;;;;;;;;;0.80;99.90;;;;;;5071128;28;19925;-71
2022/03/04 05:46:08;;;;;;;;;;;0.80;99.90;;;;;;5070954;28;19925;-70
2022/03/04 05:48:36;;;;;;;;;;;0.80;99.90;;;;;;5070897;28;19928;-71
2022/03/04 05:51:03;;;;;;;;;;;0.70;99.90;;;;;;5070749;28;19925;-71
2022/03/04 05:53:30;;;;;;;;;;;0.70;99.90;;;;;;5054134;28;20383;-71
2022/03/04 05:55:57;;;;;;;;;;;0.60;99.90;;;;;;5070959;28;19954;-72
2022/03/04 05:58:24;;;;;;;;;;;0.60;99.90;;;;;;5070700;28;19924;-71
2022/03/04 06:00:51;;;;;;;;;;;0.60;99.90;;;;;;5070206;28;19924;-71
2022/03/04 06:03:18;;;;;;;;;;;0.70;99.90;;;;;;5067252;28;19924;-70
2022/03/04 06:05:47;;;;;;;;;;;0.70;99.90;;;;;;5070706;28;19932;-72
2022/03/04 06:08:14;;;;;;;;;;;0.70;99.90;;;;;;5070770;28;19924;-72
2022/03/04 06:10:41;;;;;;;;;;;0.60;99.90;;;;;;5070480;28;19932;-72
2022/03/04 06:13:07;;;;;;;;;;;0.70;99.90;;;;;;5054098;28;19967;-70
2022/03/04 06:15:35;;;;;;;;;;;0.60;99.90;;;;;;5070747;28;19925;-74
2022/03/04 06:18:01;;;;;;;;;;;0.70;99.90;;;;;;5070629;28;19939;-74
2022/03/04 06:20:28;;;;;;;;;;;0.70;99.90;;;;;;5069999;28;19932;-72
2022/03/04 06:22:57;;;;;;;;;;;0.70;99.90;;;;;;5053835;28;19931;-75
2022/03/04 06:25:24;;;;;;;;;;;0.70;99.90;;;;;;5053954;28;20407;-76
2022/03/04 06:27:52;;;;;;;;;;;0.80;99.90;;;;;;5053826;28;19936;-75
2022/03/04 06:30:19;;;;;;;;;;;0.80;99.90;;;;;;5053577;28;19933;-76
2022/03/04 06:32:46;;;;;;;;;;;0.90;99.90;;;;;;5053529;28;19928;-76
2022/03/04 06:35:13;;;;;;;;;;;0.90;99.90;;;;;;5053447;28;19925;-76
2022/03/04 06:37:40;;;;;;;;;;;0.90;99.90;;;;;;5053909;28;19936;-75
2022/03/04 06:40:09;;;;;;;;;;;1.00;99.90;;;;;;5053330;28;19924;-76
2022/03/04 06:42:35;;;;;;;;;;;1.00;99.90;;;;;;5053148;28;19956;-76
2022/03/04 06:45:03;;;;;;;;;;;1.00;99.90;;;;;;5053369;28;19932;-76
2022/03/04 06:47:30;;;;;;;;;;;1.00;99.90;;;;;;5053176;28;19929;-75
2022/03/04 06:49:56;;;;;;;;;;;1.10;99.90;;;;;;5052839;28;19925;-76
2022/03/04 06:52:23;;;;;;;;;;;1.20;99.90;;;;;;5053393;28;19925;-76
2022/03/04 06:54:50;;;;;;;;;;;1.20;99.90;;;;;;5053244;28;19925;-75
2022/03/04 06:57:18;;;;;;;;;;;1.30;99.90;;;;;;5052410;28;20292;-75
2022/03/04 06:59:45;;;;;;;;;;;1.40;99.90;;;;;;5051830;28;19925;-77
2022/03/04 07:02:13;;;;;;;;;;;1.40;99.90;;;;;;5051859;28;19925;-76
2022/03/04 07:04:40;;;;;;;;;;;1.50;99.90;;;;;;5051903;28;19925;-75
2022/03/04 07:07:07;;;;;;;;;;;1.50;99.90;;;;;;5052001;28;19924;-74
2022/03/04 07:09:34;;;;;;;;;;;1.60;99.90;;;;;;5051837;28;20295;-75
2022/03/04 07:12:01;;;;;;;;;;;1.70;99.90;;;;;;5052167;28;19925;-75
2022/03/04 07:14:29;;;;;;;;;;;1.70;99.90;;;;;;5052051;28;19925;-73
2022/03/04 07:16:56;;;;;;;;;;;1.70;99.90;;;;;;5052280;28;19925;-76
2022/03/04 07:19:23;;;;;;;;;;;1.80;99.90;;;;;;5050740;28;19928;-76
2022/03/04 07:21:49;;;;;;;;;;;1.90;99.90;;;;;;5052601;28;19929;-76
2022/03/04 07:24:16;;;;;;;;;;;1.90;99.90;;;;;;5052528;28;19925;-75
2022/03/04 07:26:43;;;;;;;;;;;2.00;99.90;;;;;;5052468;28;19932;-75
2022/03/04 07:29:10;;;;;;;;;;;2.00;99.90;;;;;;5051332;28;19929;-76
2022/03/04 07:31:38;;;;;;;;;;;2.10;99.90;;;;;;5051580;28;19928;-75
2022/03/04 07:34:05;;;;;;;;;;;2.20;99.90;;;;;;5052188;28;19933;-74
2022/03/04 07:36:33;;;;;;;;;;;2.20;99.90;;;;;;5052555;28;19925;-74
2022/03/04 07:39:00;;;;;;;;;;;2.30;99.90;;;;;;5051899;28;19929;-74
2022/03/04 07:41:26;;;;;;;;;;;2.30;99.90;;;;;;5052012;28;19925;-75
2022/03/04 07:43:53;;;;;;;;;;;2.40;99.90;;;;;;5051694;28;19932;-74
2022/03/04 07:46:21;;;;;;;;;;;2.40;99.90;;;;;;5051527;28;19928;-74
2022/03/04 07:48:50;;;;;;;;;;;2.50;99.90;;;;;;5051120;28;19928;-74
2022/03/04 07:51:17;;;;;;;;;;;2.50;99.90;;;;;;5052277;28;19931;-75
2022/03/04 07:53:44;;;;;;;;;;;2.60;99.90;;;;;;5050811;28;19928;-76
2022/03/04 07:56:11;;;;;;;;;;;2.70;99.90;;;;;;5051890;28;20477;-76
2022/03/04 07:58:37;;;;;;;;;;;2.70;99.90;;;;;;5052238;28;20015;-75
2022/03/04 08:01:05;;;;;;;;;;;2.70;99.90;;;;;;5052148;28;19932;-76
2022/03/04 08:03:32;;;;;;;;;;;2.80;99.90;;;;;;5051385;28;19969;-75
2022/03/04 08:06:00;;;;;;;;;;;2.80;99.90;;;;;;5051640;28;19925;-75
2022/03/04 08:08:28;;;;;;;;;;;2.90;99.90;;;;;;5052068;28;19932;-74
2022/03/04 08:10:55;;;;;;;;;;;3.00;99.90;;;;;;5051392;28;19929;-75
2022/03/04 08:13:22;;;;;;;;;;;3.00;99.90;;;;;;5051661;28;19931;-75
2022/03/04 08:15:48;;;;;;;;;;;3.10;99.90;;;;;;5051504;28;19948;-75
2022/03/04 08:18:15;;;;;;;;;;;3.10;99.90;;;;;;5051833;28;19947;-74
2022/03/04 08:20:42;;;;;;;;;;;3.10;99.90;;;;;;5067970;28;19936;-74
2022/03/04 08:23:11;;;;;;;;;;;3.20;99.90;;;;;;5065974;28;20391;-74
2022/03/04 08:25:38;;;;;;;;;;;3.20;99.90;;;;;;5068027;28;19925;-74
2022/03/04 08:28:05;;;;;;;;;;;3.30;99.90;;;;;;5051610;28;20019;-73
2022/03/04 08:30:32;;;;;;;;;;;3.40;99.90;;;;;;5049465;28;20059;-74
2022/03/04 08:32:59;;;;;;;;;;;3.40;99.90;;;;;;5051201;28;19925;-74
2022/03/04 08:35:26;;;;;;;;;;;3.40;99.90;;;;;;5051335;28;19925;-74
2022/03/04 08:37:53;;;;;;;;;;;3.40;99.90;;;;;;5051046;28;19932;-73
2022/03/04 08:40:22;;;;;;;;;;;3.50;99.90;;;;;;5051568;28;19925;-74
2022/03/04 08:42:51;;;;;;;;;;;3.60;99.90;;;;;;5050820;28;20449;-75
2022/03/04 08:45:18;;;;;;;;;;;3.70;99.90;;;;;;5051158;28;19924;-74
2022/03/04 08:47:45;;;;;;;;;;;3.70;99.90;;;;;;5051298;28;19933;-73
2022/03/04 08:50:13;;;;;;;;;;;3.80;99.90;;;;;;5067242;28;19983;-74
2022/03/04 08:52:40;;;;;;;;;;;3.90;99.90;;;;;;5068117;28;19925;-73
2022/03/04 08:55:14;;;;;;;;;;;3.90;99.90;;;;;;5051352;28;20023;-74
2022/03/04 08:57:43;;;;;;;;;;;4.00;99.90;;;;;;5050859;28;19925;-74
2022/03/04 09:00:10;;;;;;;;;;;4.00;99.90;;;;;;5050462;28;19924;-74
2022/03/04 09:02:37;;;;;;;;;;;4.10;99.90;;;;;;5051029;28;19928;-74
2022/03/04 09:05:05;;;;;;;;;;;4.20;99.90;;;;;;5050915;28;19931;-75
2022/03/04 09:07:31;;;;;;;;;;;4.30;99.90;;;;;;5049610;28;20016;-75
2022/03/04 09:09:59;;;;;;;;;;;4.30;99.90;;;;;;5048093;28;19924;-74
2022/03/04 09:12:26;;;;;;;;;;;4.50;99.90;;;;;;5045477;28;19943;-74
2022/03/04 09:14:56;;;;;;;;;;;4.60;99.90;;;;;;5048704;28;20388;-75
2022/03/04 09:17:24;;;;;;;;;;;4.60;99.90;;;;;;5060331;28;19932;-74
2022/03/04 09:19:50;;;;;;;;;;;4.70;99.90;;;;;;5048674;28;20334;-75
2022/03/04 09:22:17;;;;;;;;;;;4.70;99.90;;;;;;5049815;28;19925;-74
2022/03/04 09:24:44;;;;;;;;;;;4.80;99.90;;;;;;5050318;28;19929;-75
2022/03/04 09:27:11;;;;;;;;;;;4.90;99.90;;;;;;5049627;28;19954;-74
2022/03/04 09:29:37;;;;;;;;;;;5.00;99.90;;;;;;5050223;28;19925;-74
2022/03/04 09:32:06;;;;;;;;;;;5.00;99.90;;;;;;5050402;28;19924;-73
2022/03/04 09:34:34;;;;;;;;;;;5.10;99.90;;;;;;5050070;28;19928;-72
2022/03/04 09:37:01;;;;;;;;;;;5.10;99.90;;;;;;5050662;28;19925;-73
2022/03/04 09:39:27;;;;;;;;;;;5.20;99.90;;;;;;5049831;28;19925;-73
2022/03/04 09:41:54;;;;;;;;;;;5.30;99.90;;;;;;5050617;28;19925;-73
2022/03/04 09:44:21;;;;;;;;;;;5.40;99.90;;;;;;5050098;28;19925;-74
2022/03/04 09:46:50;;;;;;;;;;;5.40;99.90;;;;;;5050176;28;19935;-73
2022/03/04 09:49:18;;;;;;;;;;;5.50;99.90;;;;;;5048913;28;19932;-76
2022/03/04 09:51:45;;;;;;;;;;;5.60;99.90;;;;;;5049296;28;20288;-75
2022/03/04 09:54:12;;;;;;;;;;;5.70;99.90;;;;;;5050926;28;19932;-74
2022/03/04 09:56:39;;;;;;;;;;;5.80;99.90;;;;;;5050293;28;19932;-74
2022/03/04 09:59:06;;;;;;;;;;;5.90;99.90;;;;;;5049878;28;19982;-73
2022/03/04 10:01:32;;;;;;;;;;;5.90;99.90;;;;;;5050168;28;19929;-74
2022/03/04 10:03:59;;;;;;;;;;;6.00;99.90;;;;;;5049859;28;19951;-74
2022/03/04 10:06:27;;;;;;;;;;;6.10;99.90;;;;;;5049985;28;19956;-73
2022/03/04 10:08:54;;;;;;;;;;;6.10;99.90;;;;;;5049524;28;19931;-73
2022/03/04 10:11:25;;;;;;;;;;;6.20;99.90;;;;;;5049776;28;20378;-73
2022/03/04 10:13:54;;;;;;;;;;;6.30;99.90;;;;;;5049901;28;19935;-72
2022/03/04 10:16:24;;;;;;;;;;;6.40;99.90;;;;;;5051210;28;19925;-73
2022/03/04 10:19:07;;;;;;;;;;;6.40;99.90;;;;;;5052864;28;19925;-72
2022/03/04 10:21:49;;;;;;;;;;;6.50;99.90;;;;;;5050354;28;19925;-74
2022/03/04 10:24:17;;;;;;;;;;;6.60;99.90;;;;;;5033886;28;19932;-74
2022/03/04 10:26:43;;;;;;;;;;;6.70;99.90;;;;;;5050078;28;19994;-73
2022/03/04 10:29:18;;;;;;;;;;;6.90;99.90;;;;;;5049567;28;19929;-71
2022/03/04 10:32:04;;;;;;;;;;;7.00;99.90;;;;;;5050375;28;19975;-74
2022/03/04 10:34:35;;;;;;;;;;;7.20;99.90;;;;;;5048003;28;19925;-77
2022/03/04 10:37:03;;;;;;;;;;;7.30;99.90;;;;;;5053219;28;19924;-74
2022/03/04 10:39:30;;;;;;;;;;;7.40;99.90;;;;;;5053027;28;20039;-74
2022/03/04 10:41:57;;;;;;;;;;;7.50;99.90;;;;;;5053302;28;19924;-72
2022/03/04 10:44:25;;;;;;;;;;;7.50;99.90;;;;;;5053291;28;19932;-74
2022/03/04 10:46:55;;;;;;;;;;;7.60;99.90;;;;;;5053398;28;19925;-74
2022/03/04 10:49:24;;;;;;;;;;;7.90;99.90;;;;;;5053090;28;19925;-74
2022/03/04 10:51:50;;;;;;;;;;;8.20;99.90;;;;;;5053459;28;19928;-73
2022/03/04 10:54:19;;;;;;;;;;;8.20;99.90;;;;;;5053341;28;19932;-74
2022/03/04 10:56:51;;;;;;;;;;;8.40;99.90;;;;;;5052818;28;19925;-75
2022/03/04 10:59:18;;;;;;;;;;;8.50;99.90;;;;;;5052796;28;19925;-72
2022/03/04 11:01:48;;;;;;;;;;;8.60;99.90;;;;;;5053166;28;19932;-73
2022/03/04 11:04:17;;;;;;;;;;;8.80;99.90;;;;;;5053081;28;19924;-73
2022/03/04 11:06:45;;;;;;;;;;;10.80;99.90;;;;;;5052922;28;19929;-72
2022/03/04 11:09:12;;;;;;;;;;;16.70;98.20;;;;;;5052162;28;20315;-73
2022/03/04 11:11:43;;;;;;;;;;;20.60;94.10;;;;;;5053003;28;19935;-72
2022/03/04 11:14:11;;;;;;;;;;;22.40;91.10;;;;;;5052627;28;19924;-72
2022/03/04 11:16:38;;;;;;;;;;;23.30;90.50;;;;;;5052578;28;20454;-74
2022/03/04 11:19:05;;;;;;;;;;;24.30;88.80;;;;;;5052453;28;19951;-74
2022/03/04 11:21:32;;;;;;;;;;;25.00;88.20;;;;;;5052443;28;19932;-74
2022/03/04 11:24:00;;;;;;;;;;;24.60;84.30;;;;;;5052329;28;19931;-73
2022/03/04 11:26:30;;;;;;;;;;;24.20;84.40;;;;;;5051552;28;19924;-76
2022/03/04 11:28:59;;;;;;;;;;;25.20;84.60;;;;;;5049544;28;19979;-74
2022/03/04 11:31:28;;;;;;;;;;;26.10;83.10;;;;;;5051019;28;20292;-74
2022/03/04 11:33:56;;;;;;;;;;;25.70;82.90;;;;;;5052369;28;19932;-74
2022/03/04 11:36:25;;;;;;;;;;;24.90;81.90;;;;;;5049317;28;19931;-74
2022/03/04 11:39:01;;;;;;;;;;;24.70;81.10;;;;;;5051741;28;19925;-73
2022/03/04 11:41:34;;;;;;;;;;;24.30;80.70;;;;;;5066868;28;19924;-73
2022/03/04 11:44:10;;;;;;;;;;;25.00;81.20;;;;;;5068835;28;19932;-73
2022/03/04 11:46:44;;;;;;;;;;;25.90;82.00;;;;;;5067924;28;19929;-75
2022/03/04 11:49:28;;;;;;;;;;;25.40;80.10;;;;;;5068807;28;19932;-75
2022/03/04 11:52:11;;;;;;;;;;;26.70;80.60;;;;;;5052192;28;19932;-75
2022/03/04 11:54:42;;;;;;;;;;;26.40;79.00;;;;;;5052577;28;19925;-75
2022/03/04 11:57:16;;;;;;;;;;;25.90;79.70;;;;;;5068913;28;19925;-76
2022/03/04 11:59:50;;;;;;;;;;;26.90;78.70;;;;;;5052013;28;20000;-74
2022/03/04 12:02:19;;;;;;;;;;;28.60;78.60;;;;;;5052033;28;19924;-74
2022/03/04 12:04:46;;;;;;;;;;;27.20;76.50;;;;;;5051765;28;19945;-74
2022/03/04 12:07:12;;;;;;;;;;;28.40;77.30;;;;;;5051313;28;19932;-75
2022/03/04 12:09:47;;;;;;;;;;;28.90;77.60;;;;;;5050494;28;19939;-74
2022/03/04 12:12:16;;;;;;;;;;;28.00;74.80;;;;;;5050958;28;19928;-74
2022/03/04 12:14:43;;;;;;;;;;;27.60;74.80;;;;;;5052538;28;19924;-74
2022/03/04 12:17:11;;;;;;;;;;;28.10;75.80;;;;;;5052145;28;19925;-74
2022/03/04 12:19:38;;;;;;;;;;;27.70;75.30;;;;;;5051898;28;19928;-75
2022/03/04 12:22:07;;;;;;;;;;;27.60;73.80;;;;;;5051700;28;19932;-74
2022/03/04 12:24:34;;;;;;;;;;;27.60;74.10;;;;;;5051505;28;19925;-75
2022/03/04 12:27:01;;;;;;;;;;;27.70;74.10;;;;;;5050189;28;20273;-74
2022/03/04 12:29:44;;;;;;;;;;;26.30;73.40;;;;;;5050636;28;19925;-75
2022/03/04 12:32:13;;;;;;;;;;;27.30;74.30;;;;;;5051305;28;19943;-74
2022/03/04 12:34:47;;;;;;;;;;;27.20;74.30;;;;;;5051508;28;19968;-75
2022/03/04 12:37:14;;;;;;;;;;;27.60;73.40;;;;;;5051282;28;19929;-75
2022/03/04 12:39:43;;;;;;;;;;;29.30;73.80;;;;;;5049978;28;20383;-74
2022/03/04 12:42:10;;;;;;;;;;;29.60;73.00;;;;;;5051598;28;19925;-72
2022/03/04 12:44:38;;;;;;;;;;;30.40;73.90;;;;;;5051104;28;20342;-74
2022/03/04 12:47:04;;;;;;;;;;;31.50;73.20;;;;;;5050841;28;19929;-75
2022/03/04 12:49:33;;;;;;;;;;;30.70;72.10;;;;;;5050136;28;19926;-75
2022/03/04 12:52:00;;;;;;;;;;;28.40;70.90;;;;;;5050321;28;19931;-73
2022/03/04 12:54:28;;;;;;;;;;;28.70;70.50;;;;;;5049608;28;19936;-75
2022/03/04 12:56:56;;;;;;;;;;;28.90;70.90;;;;;;5049847;28;20306;-74
2022/03/04 12:59:23;;;;;;;;;;;29.60;71.50;;;;;;5048892;28;19928;-74
2022/03/04 13:01:51;;;;;;;;;;;29.00;70.50;;;;;;5043966;28;19947;-74
2022/03/04 13:04:18;;;;;;;;;;;28.90;69.50;;;;;;5062249;28;19925;-73
2022/03/04 13:06:48;;;;;;;;;;;27.50;68.60;;;;;;5049282;28;19929;-75
2022/03/04 13:09:15;;;;;;;;;;;27.50;69.80;;;;;;5049301;28;19955;-72
2022/03/04 13:11:42;;;;;;;;;;;28.00;70.70;;;;;;5049585;28;19932;-74
2022/03/04 13:14:10;;;;;;;;;;;28.00;67.30;;;;;;5049148;28;20012;-73
2022/03/04 13:16:44;;;;;;;;;;;28.00;68.80;;;;;;5049621;28;19932;-75
2022/03/04 13:19:12;;;;;;;;;;;27.70;68.80;;;;;;5049378;28;20410;-74
2022/03/04 13:21:44;;;;;;;;;;;27.40;68.50;;;;;;5049667;28;20466;-73
2022/03/04 13:24:13;;;;;;;;;;;26.40;67.60;;;;;;5049631;28;19931;-74
2022/03/04 13:26:47;;;;;;;;;;;25.50;68.00;;;;;;5049434;28;19929;-74
2022/03/04 13:29:14;;;;;;;;;;;25.30;67.20;;;;;;5048863;28;19924;-74
2022/03/04 13:31:41;;;;;;;;;;;25.50;66.60;;;;;;5049716;28;19932;-75
2022/03/04 13:34:08;;;;;;;;;;;25.30;67.10;;;;;;5049274;28;19925;-74
2022/03/04 13:36:39;;;;;;;;;;;25.70;68.60;;;;;;5049336;28;20331;-75
2022/03/04 13:39:06;;;;;;;;;;;26.10;66.10;;;;;;5048947;28;19928;-73
2022/03/04 13:41:36;;;;;;;;;;;25.20;66.30;;;;;;5049383;28;19932;-74
2022/03/04 13:44:07;;;;;;;;;;;23.90;66.20;;;;;;5049572;28;19932;-74
2022/03/04 13:46:33;;;;;;;;;;;23.60;66.40;;;;;;5049348;28;19926;-75
2022/03/04 13:49:02;;;;;;;;;;;23.60;66.50;;;;;;5048875;28;20334;-72
2022/03/04 13:51:29;;;;;;;;;;;23.70;65.80;;;;;;5051128;28;19925;-76
2022/03/04 13:53:56;;;;;;;;;;;24.30;65.70;;;;;;5053226;28;20051;-74
2022/03/04 13:56:24;;;;;;;;;;;24.50;65.90;;;;;;5053273;28;19960;-74
2022/03/04 13:58:57;;;;;;;;;;;23.80;65.20;;;;;;5051085;28;19976;-73
2022/03/04 14:01:24;;;;;;;;;;;23.80;66.00;;;;;;5068729;28;20342;-73
2022/03/04 14:03:51;;;;;;;;;;;24.40;66.10;;;;;;5046778;28;19932;-74
2022/03/04 14:06:19;;;;;;;;;;;24.70;66.30;;;;;;5052840;28;20351;-74
2022/03/04 14:08:46;;;;;;;;;;;24.50;64.70;;;;;;5052568;28;19928;-73
2022/03/04 14:11:13;;;;;;;;;;;24.10;64.50;;;;;;5051251;28;19928;-74
2022/03/04 14:13:41;;;;;;;;;;;23.80;63.70;;;;;;5069738;28;19928;-72
2022/03/04 14:16:10;;;;;;;;;;;23.20;64.20;;;;;;5053616;28;19925;-73
2022/03/04 14:18:37;;;;;;;;;;;23.00;64.70;;;;;;5053142;28;20024;-74
2022/03/04 14:21:07;;;;;;;;;;;22.50;64.60;;;;;;5052440;28;19931;-73
2022/03/04 14:23:34;;;;;;;;;;;22.00;63.80;;;;;;5052101;28;19968;-74
2022/03/04 14:26:01;;;;;;;;;;;22.20;64.10;;;;;;5052227;28;19929;-73
2022/03/04 14:28:28;;;;;;;;;;;22.60;62.90;;;;;;5052533;28;19924;-73